createdAt,value
2022-09-23T00:03:13.050Z,2.38
2022-09-23T00:08:15.841Z,2.45
2022-09-23T00:18:22.633Z,2.75
2022-09-23T00:28:29.582Z,2.60
2022-09-23T00:33:32.409Z,2.30
2022-09-23T00:43:41.659Z,2.58
2022-09-23T00:48:46.084Z,2.53
2022-09-23T00:53:51.371Z,2.20
2022-09-23T00:58:55.735Z,2.15
2022-09-23T01:03:59.506Z,2.30
2022-09-23T01:09:02.449Z,2.10
2022-09-23T01:14:21.814Z,2.20
2022-09-23T01:19:51.498Z,2.28
2022-09-23T01:25:14.265Z,2.20
2022-09-23T01:30:39.615Z,2.30
2022-09-23T01:35:55.216Z,2.40
2022-09-23T01:41:03.680Z,2.20
2022-09-23T01:46:14.297Z,2.35
2022-09-23T01:51:24.133Z,2.38
2022-09-23T01:56:30.347Z,2.33
2022-09-23T02:01:40.025Z,2.67
2022-09-23T02:06:50.702Z,2.50
2022-09-23T02:12:00.607Z,2.45
2022-09-23T02:17:09.920Z,2.92
2022-09-23T02:22:18.051Z,2.78
2022-09-23T02:27:26.813Z,2.45
2022-09-23T02:32:35.873Z,2.65
2022-09-23T02:37:45.836Z,2.08
2022-09-23T02:42:55.994Z,2.40
2022-09-23T02:48:05.818Z,2.20
2022-09-23T02:53:09.941Z,2.38
2022-09-23T02:58:14.454Z,2.70
2022-09-23T03:03:30.993Z,2.58
2022-09-23T03:08:44.109Z,2.33
2022-09-23T03:13:56.310Z,2.50
2022-09-23T03:19:09.443Z,2.30
2022-09-23T03:24:15.784Z,2.70
2022-09-23T03:29:20.588Z,2.53
2022-09-23T03:34:28.019Z,2.63
2022-09-23T03:39:37.868Z,2.13
2022-09-23T03:44:44.477Z,2.83
2022-09-23T03:49:49.269Z,2.53
2022-09-23T03:54:53.800Z,2.30
2022-09-23T03:59:56.756Z,2.63
2022-09-23T04:04:59.530Z,2.75
2022-09-23T04:15:07.596Z,2.30
2022-09-23T04:20:10.911Z,2.40
2022-09-23T04:25:15.148Z,2.33
2022-09-23T04:30:18.648Z,2.17
2022-09-23T04:35:21.461Z,2.72
2022-09-23T04:45:29.645Z,2.50
2022-09-23T04:50:34.774Z,3.25
2022-09-23T04:55:38.935Z,2.80
2022-09-23T05:00:41.786Z,2.72
2022-09-23T05:05:44.629Z,3.08
2022-09-23T05:10:49.445Z,2.78
2022-09-23T05:15:58.880Z,2.65
2022-09-23T05:21:02.003Z,2.83
2022-09-23T05:26:08.247Z,2.80
2022-09-23T05:31:19.365Z,3.00
2022-09-23T05:36:23.952Z,3.00
2022-09-23T05:41:28.688Z,3.50
2022-09-23T05:46:33.285Z,3.00
2022-09-23T05:51:36.644Z,3.45
2022-09-23T05:56:40.811Z,3.22
2022-09-23T06:01:45.189Z,3.28
2022-09-23T06:06:48.174Z,2.85
2022-09-23T06:11:52.326Z,3.13
2022-09-23T06:16:55.122Z,3.63
2022-09-23T06:27:02.546Z,3.63
2022-09-23T06:32:05.730Z,3.00
2022-09-23T06:37:17.763Z,3.22
2022-09-23T06:42:24.353Z,2.35
2022-09-23T06:47:27.214Z,3.08
2022-09-23T06:52:30.045Z,2.10
2022-09-23T06:57:34.593Z,2.40
2022-09-23T07:02:37.421Z,2.30
2022-09-23T07:07:41.256Z,2.80
2022-09-23T07:12:45.576Z,2.70
2022-09-23T07:17:49.419Z,2.83
2022-09-23T07:22:52.817Z,3.22
2022-09-23T07:27:58.401Z,2.95
2022-09-23T07:33:01.303Z,3.03
2022-09-23T07:38:04.326Z,3.35
2022-09-23T07:43:08.975Z,3.50
2022-09-23T07:48:12.509Z,2.97
2022-09-23T07:53:15.746Z,3.13
2022-09-23T07:58:19.989Z,3.10
2022-09-23T08:03:22.853Z,3.53
2022-09-23T08:08:25.931Z,3.40
2022-09-23T08:13:30.868Z,3.10
2022-09-23T08:18:34.071Z,3.30
2022-09-23T08:23:36.889Z,2.95
2022-09-23T08:28:45.235Z,2.80
2022-09-23T08:33:48.104Z,2.88
2022-09-23T08:38:51.035Z,2.97
2022-09-23T08:43:59.934Z,2.58
2022-09-23T08:49:03.275Z,2.80
2022-09-23T08:54:07.529Z,3.63
2022-09-23T08:59:19.118Z,2.90
2022-09-23T09:04:25.817Z,2.85
2022-09-23T09:09:32.101Z,3.15
2022-09-23T09:14:44.768Z,3.55
2022-09-23T09:25:06.150Z,2.67
2022-09-23T09:30:14.500Z,2.67
2022-09-23T09:35:26.381Z,2.33
2022-09-23T09:40:29.257Z,3.13
2022-09-23T09:45:57.570Z,3.17
2022-09-23T09:51:19.105Z,3.05
2022-09-23T09:56:27.229Z,2.35
2022-09-23T10:01:33.388Z,2.83
2022-09-23T10:06:37.107Z,1.90
2022-09-23T10:11:40.460Z,1.98
2022-09-23T10:16:47.153Z,1.90
2022-09-23T10:21:54.544Z,2.38
2022-09-23T10:27:00.940Z,2.20
2022-09-23T10:32:25.604Z,1.60
2022-09-23T10:37:34.514Z,1.80
2022-09-23T10:43:11.432Z,1.40
2022-09-23T10:48:26.421Z,1.70
2022-09-23T10:53:43.488Z,1.60
2022-09-23T10:59:05.525Z,1.63
2022-09-23T11:04:32.580Z,1.77
2022-09-23T11:09:51.044Z,2.65
2022-09-23T11:15:10.886Z,1.63
2022-09-23T11:20:38.028Z,1.80
2022-09-23T11:25:50.568Z,1.58
2022-09-23T11:31:04.188Z,1.95
2022-09-23T11:36:13.547Z,1.67
2022-09-23T11:41:21.555Z,1.80
2022-09-23T11:46:32.051Z,1.60
2022-09-23T11:51:44.438Z,2.10
2022-09-23T11:56:51.466Z,1.50
2022-09-23T12:02:09.304Z,1.35
2022-09-23T12:07:23.157Z,1.45
2022-09-23T12:12:36.306Z,1.90
2022-09-23T12:18:06.571Z,1.60
2022-09-23T12:23:27.143Z,1.45
2022-09-23T12:28:33.769Z,1.80
2022-09-23T12:33:37.308Z,1.90
2022-09-23T12:38:47.937Z,1.40
2022-09-23T12:43:56.562Z,1.10
2022-09-23T12:49:02.040Z,1.40
2022-09-23T12:54:25.212Z,1.27
2022-09-23T12:59:31.093Z,1.10
2022-09-23T13:05:01.374Z,1.08
2022-09-23T13:10:10.078Z,1.40
2022-09-23T13:15:19.835Z,1.70
2022-09-23T13:20:38.408Z,1.10
2022-09-23T13:25:43.800Z,1.20
2022-09-23T13:30:52.020Z,1.27
2022-09-23T13:35:58.609Z,1.17
2022-09-23T13:41:08.190Z,1.10
2022-09-23T13:46:14.559Z,1.20
2022-09-23T13:51:22.961Z,1.50
2022-09-23T13:56:29.432Z,1.33
2022-09-23T14:01:34.307Z,1.00
2022-09-23T14:06:42.037Z,1.35
2022-09-23T14:11:46.373Z,1.33
2022-09-23T14:16:51.694Z,1.35
2022-09-23T14:21:56.075Z,1.40
2022-09-23T14:27:03.321Z,1.30
2022-09-23T14:32:08.246Z,1.48
2022-09-23T14:37:38.925Z,1.33
2022-09-23T14:42:46.346Z,1.20
2022-09-23T14:47:52.529Z,1.60
2022-09-23T14:52:55.306Z,1.02
2022-09-23T14:58:05.250Z,1.02
2022-09-23T15:03:16.186Z,3.25
2022-09-23T15:08:21.507Z,1.40
2022-09-23T15:13:30.479Z,1.30
2022-09-23T15:18:35.923Z,1.40
2022-09-23T15:23:46.275Z,2.05
2022-09-23T15:28:51.974Z,1.65
2022-09-23T15:33:55.911Z,1.48
2022-09-23T15:39:02.914Z,1.55
2022-09-23T15:44:13.569Z,1.20
2022-09-23T15:49:23.137Z,1.33
2022-09-23T15:54:26.106Z,2.30
2022-09-23T15:59:31.526Z,1.65
2022-09-23T16:04:35.925Z,1.85
2022-09-23T16:09:38.667Z,1.60
2022-09-23T16:14:42.819Z,1.70
2022-09-23T16:19:46.752Z,1.83
2022-09-23T16:24:49.539Z,2.33
2022-09-23T16:29:53.590Z,2.30
2022-09-23T16:34:58.475Z,1.55
2022-09-23T16:40:02.078Z,2.10
2022-09-23T16:45:07.320Z,1.98
2022-09-23T16:50:11.439Z,1.60
2022-09-23T16:55:15.255Z,1.50
2022-09-23T17:00:37.234Z,1.85
2022-09-23T17:05:40.473Z,1.70
2022-09-23T17:10:44.530Z,2.10
2022-09-23T17:15:48.634Z,2.92
2022-09-23T17:20:59.197Z,2.85
2022-09-23T17:26:05.432Z,2.60
2022-09-23T17:31:09.947Z,2.50
2022-09-23T17:36:14.175Z,3.58
2022-09-23T17:41:18.069Z,4.35
2022-09-23T17:46:23.171Z,3.53
2022-09-23T17:51:26.973Z,2.80
2022-09-23T17:56:30.841Z,3.55
2022-09-23T18:01:35.556Z,3.10
2022-09-23T18:06:38.895Z,3.13
2022-09-23T18:11:44.149Z,2.70
2022-09-23T18:16:50.631Z,2.60
2022-09-23T18:21:56.078Z,2.60
2022-09-23T18:26:59.916Z,2.88
2022-09-23T18:32:05.045Z,3.35
2022-09-23T18:37:15.242Z,3.65
2022-09-23T18:42:18.497Z,3.25
2022-09-23T18:47:36.683Z,4.13
2022-09-23T18:52:39.593Z,4.63
2022-09-23T18:57:42.455Z,5.60
2022-09-23T19:02:46.981Z,5.10
2022-09-23T19:07:49.950Z,4.05
2022-09-23T19:12:52.815Z,3.90
2022-09-23T19:17:57.238Z,3.22
2022-09-23T19:23:00.034Z,3.22
2022-09-23T19:28:05.438Z,5.22
2022-09-23T19:33:10.099Z,6.53
2022-09-23T19:38:13.246Z,4.10
2022-09-23T19:43:17.038Z,4.30
2022-09-23T19:48:21.491Z,3.75
2022-09-23T19:53:28.004Z,3.90
2022-09-23T19:58:31.200Z,3.75
2022-09-23T20:03:35.432Z,3.85
2022-09-23T20:08:38.702Z,4.28
2022-09-23T20:13:43.961Z,5.90
2022-09-23T20:18:52.842Z,6.07
2022-09-23T20:23:55.714Z,6.43
2022-09-23T20:28:59.404Z,7.10
2022-09-23T20:34:05.855Z,6.97
2022-09-23T20:39:10.030Z,7.18
2022-09-23T20:44:13.876Z,7.85
2022-09-23T20:49:19.025Z,7.60
2022-09-23T20:54:23.251Z,7.35
2022-09-23T20:59:27.232Z,7.50
2022-09-23T21:04:31.787Z,7.07
2022-09-23T21:09:34.801Z,7.97
2022-09-23T21:14:37.804Z,7.20
2022-09-23T21:19:41.921Z,7.10
2022-09-23T21:25:25.714Z,8.23
2022-09-23T21:30:08.653Z,6.07
2022-09-23T21:35:12.820Z,8.30
2022-09-23T21:40:33.389Z,7.60
2022-09-23T21:45:36.359Z,8.63
2022-09-23T21:50:40.995Z,8.80
2022-09-23T21:55:44.079Z,8.68
2022-09-23T22:00:46.978Z,8.90
2022-09-23T22:06:01.726Z,9.20
2022-09-23T22:11:06.774Z,7.90
2022-09-23T22:16:10.689Z,8.38
2022-09-23T22:21:14.901Z,8.20
2022-09-23T22:26:17.826Z,7.82
2022-09-23T22:31:38.202Z,8.15
2022-09-23T22:36:42.424Z,9.00
2022-09-23T22:41:45.886Z,8.68
2022-09-23T22:46:49.415Z,8.80
2022-09-23T22:51:54.076Z,8.02
2022-09-23T22:56:56.945Z,8.80
2022-09-23T23:02:02.436Z,8.05
2022-09-23T23:07:06.938Z,7.95
2022-09-23T23:12:09.784Z,8.63
2022-09-23T23:17:12.618Z,8.27
2022-09-23T23:22:16.784Z,8.30
2022-09-23T23:27:19.582Z,8.20
2022-09-23T23:32:22.341Z,7.85
2022-09-23T23:37:26.514Z,8.05
2022-09-23T23:42:29.554Z,8.48
2022-09-23T23:47:32.330Z,8.02
2022-09-23T23:52:36.558Z,8.40
2022-09-23T23:57:39.457Z,9.57
